• Join FlightAware (Why Join?)
  • Login
  • US Flag 
05:04PM EDT


 

Airport Tracker/Info


-or-


 

Live Flight TrackerFlight Track Log ✈ N41WM ✈ 16-Nov-2013 ✈ KPOU - KHFD

Flight Track Log - Related Links

Times and Time Zones

All times are in EST time to prevent confusion due to time zone crossing. See the N41WM flight status page for this flight to view local times or setup timezone preferences in your user account.

Time Position Orientation Groundspeed Altitude Reporting Facility
EST Latitude Longitude Course Direction KTS MPH feet Rate Location/Type
01:27PM 41.6369 -73.8233 88° East 81 93 3,400  Level Boston Center
01:28PM 41.6378 -73.7906 88° East 88 101 3,900 480 Climbing Boston Center
01:29PM 41.6383 -73.7561 89° East 92 106 4,500 480 Climbing Boston Center
01:30PM 41.6378 -73.7228 91° East 91 105 5,000 480 Climbing Boston Center
01:31PM 41.6389 -73.6850 88° East 94 108 5,500 240 Climbing Boston Center
01:32PM 41.6397 -73.6497 88° East 97 112 5,600  Climbing Boston Center
01:33PM 41.6436 -73.6136 82° East 99 114 5,600  Level Boston Center
01:34PM 41.6453 -73.5697 87° East 110 127 5,600 -60 Level Boston Center
01:35PM 41.6475 -73.5347 85° East 105 121 5,500 -120 Descending Boston Center
01:35PM 41.6481 -73.5325 72° East 102 117 5,500  Level Boston Center
01:35PM 41.6475 -73.5147 92° East 100 115 5,500 -120 Level Boston Center
01:36PM 41.6486 -73.4947 86° East 101 116 5,400 -120 Descending Boston Center
01:36PM 41.6489 -73.4775 89° East 101 116 5,400 60 Level Boston Center
01:37PM 41.6489 -73.4567 90° East 103 119 5,500 60 Climbing Boston Center
01:38PM 41.6492 -73.4344 89° East 103 119 5,500  Level Boston Center
01:38PM 41.6522 -73.4158 78° East 105 121 5,500 60 Level Boston Center
01:39PM 41.6517 -73.4008 93° East 103 119 5,600 60 Climbing Boston Center
01:39PM 41.6564 -73.3783 74° East 101 116 5,600  Level Boston Center
01:40PM 41.6567 -73.3564 89° East 104 120 5,600  Level Boston Center
01:40PM 41.6592 -73.3375 80° East 109 125 5,600 -120 Level Boston Center
01:41PM 41.6603 -73.3175 86° East 105 121 5,500 -120 Descending Boston Center
01:41PM 41.6636 -73.2994 76° East 108 124 5,500 -120 Level Boston Center
01:42PM 41.6647 -73.2758 86° East 107 123 5,400 -120 Descending Boston Center
01:42PM 41.6661 -73.2564 85° East 111 128 5,400  Level Boston Center
01:43PM 41.6644 -73.2353 96° East 106 122 5,400  Level Boston Center
01:43PM 41.6669 -73.2172 79° East 109 125 5,400  Level Boston Center
01:44PM 41.6675 -73.1989 88° East 105 121 5,400  Level Boston Center
01:44PM 41.6692 -73.1797 83° East 101 116 5,400  Level Boston Center
01:45PM 41.6686 -73.1619 92° East 101 116 5,400 60 Level Boston Center
01:45PM 41.6706 -73.1419 83° East 103 119 5,500  Climbing Boston Center
01:46PM 41.6719 -73.1142 86° East 103 119 5,400 -120 Descending Boston Center
01:46PM 41.6731 -73.1011 83° East 101 116 5,400  Level Boston Center
01:47PM 41.6736 -73.0744 88° East 108 124 5,400  Level Boston Center
01:47PM 41.6747 -73.0608 84° East 106 122 5,400  Level Boston Center
01:48PM 41.6772 -73.0356 82° East 106 122 5,400  Level Boston Center
01:48PM 41.6786 -73.0217 82° East 105 121 5,400  Level Boston Center
01:49PM 41.6789 -72.9956 89° East 108 124 5,400 -240 Level Boston Center
01:49PM 41.6797 -72.9817 85° East 108 124 5,200 -600 Descending Boston Center
01:50PM 41.6800 -72.9586 89° East 109 125 4,900 -720 Descending Boston Center
01:50PM 41.6842 -72.9369 76° East 113 130 4,500 -600 Descending Boston Center
01:51PM 41.6842 -72.9169 90° East 110 127 4,300 -540 Descending Boston Center
01:51PM 41.6867 -72.8992 79° East 104 120 4,000 -720 Descending Boston Center
01:52PM 41.6842 -72.8853 104° East 99 114 3,700 -720 Descending Boston Center
01:52PM 41.6853 -72.8622 86° East 100 115 3,300 -720 Descending Boston Center
01:53PM 41.6811 -72.8467 110° East 99 114 3,000 -420 Descending Boston Center
01:53PM 41.6794 -72.8239 96° East 98 113 2,900 -120 Descending Boston Center
01:54PM 41.6775 -72.8108 101° East 91 105 2,900  Level Boston Center
01:54PM 41.6761 -72.7894 95° East 95 109 2,900 -120 Level Boston Center
01:55PM 41.6733 -72.7778 108° East 98 113 2,800 -300 Descending Boston Center
01:55PM 41.6697 -72.7547 102° East 96 110 2,600 -420 Descending Boston Center
01:56PM 41.6700 -72.7419 88° East 91 105 2,400 -420 Descending Boston Center
01:56PM 41.6772 -72.7222 64° Northeast 93 107 2,200 -420 Descending Boston Center
01:57PM 41.6856 -72.7072 53° Northeast 95 109 1,900 -600 Descending Boston Center
01:57PM 41.6869 -72.6911 83° East 93 107 1,600 -600 Descending Boston Center
01:58PM 41.6839 -72.6836 119° Southeast 94 108 1,500 -420 Descending Boston Center
01:59PM 41.6833 -72.6589 92° East 89 102 1,200 -360 Descending Boston Center
01:59PM 41.6856 -72.6525 65° Northeast 81 93 1,100 -420 Descending Boston Center
02:00PM 41.7017 -72.6567 349° North 83 96 800 -600 Descending Boston Center
02:00PM 41.7089 -72.6550 10° North 88 101 500 -540 Descending Boston Center
02:01PM 41.7219 -72.6519 10° North 77 89 300 -180 Descending Boston Center
02:02PM 41.7375 -72.6492 North 73 84 200 -120 Descending Boston Center